Global Effort — 3FWV5 — position and weather

sailwx.info

Track history (hours):
 
Tides and Currents Weather Stations Pressure Air Temp Water Temp Dewpoint Dewpoint Depression Visibility Wind Speed Wind Dir Waves Ship Positions

Global Effort

Last reported at 2017-Nov-30 22:20 UTC. Time now 2017-Dec-14 17:14 UTC.
Position N 46°17' W 125°40'.
Warning: this ship's position is 13 days out of date.

Length 178 m; draft 10.9 m.

Type: Cargo ship. MMSI: 373412000.

Date/timePositionNaut miles runAvg speedWind from/ knotsBaromVisibWave heightAir tempDewpointWater temp
2017-Nov-30 22:20N 46°17' W 125°40'1 3.0
2017-Nov-30 21:55N 46°17' W 125°39'6 4.0
2017-Nov-30 20:26N 46°16' W 125°30'3 4.2
2017-Nov-30 19:49N 46°16' W 125°26'2 3.6
2017-Nov-30 19:22N 46°16' W 125°24'1 2.9
2017-Nov-30 18:58N 46°16' W 125°22'2 3.8
2017-Nov-30 18:30N 46°16' W 125°20'4 8.3
2017-Nov-30 18:00N 46°16' W 125°14'4 7.4
2017-Nov-30 17:30N 46°15' W 125°09'4 7.5
2017-Nov-30 17:00N 46°15' W 125°03'4 7.5
2017-Nov-30 16:30N 46°14' W 124°58'4 7.1
2017-Nov-30 16:00N 46°14' W 124°53'4 7.1
2017-Nov-30 15:30N 46°14' W 124°48'4 7.8
2017-Nov-30 15:00N 46°13' W 124°42'4 7.8
2017-Nov-30 14:30N 46°13' W 124°36'4 8.6
2017-Nov-30 14:00N 46°13' W 124°30'4 8.4
2017-Nov-30 13:31N 46°12' W 124°24'4 8.7
2017-Nov-30 13:01N 46°12' W 124°18'4 8.7
2017-Nov-30 12:30N 46°12' W 124°12'4 8.9
2017-Nov-30 12:00N 46°14' W 124°06'510.5
2017-Nov-30 11:31N 46°14' W 123°59'611.6
2017-Nov-30 11:00N 46°12' W 123°51'611.8
2017-Nov-30 10:31N 46°14' W 123°43'913.1
2017-Nov-30 09:48N 46°16' W 123°30'412.7
2017-Nov-30 09:30N 46°14' W 123°26'611.4
2017-Nov-30 09:00N 46°09' W 123°23'612.6
2017-Nov-30 08:30N 46°10' W 123°14'911.5
2017-Nov-30 07:42N 46°08' W 123°01'212.2
2017-Nov-30 07:30N 46°06' W 122°58'711.1
2017-Nov-30 06:51N 46°01' W 122°51'411.3
2017-Nov-30 06:31N 45°58' W 122°49'713.1
2017-Nov-30 06:01N 45°51' W 122°47'612.8
2017-Nov-30 05:31N 45°45' W 122°46'611.7
2017-Nov-30 05:00N 45°39' W 122°46'3 6.9
2017-Nov-30 04:31N 45°36' W 122°46'4 8.2
2017-Nov-30 04:01N 45°33' W 122°42'2 3.1
2017-Nov-30 03:30N 45°32' W 122°40'0 0.1
2017-Nov-30 02:58N 45°32' W 122°40'0 0.0
2017-Nov-30 02:28N 45°32' W 122°40'0 0.0
2017-Nov-30 01:58N 45°32' W 122°40'0 0.0
2017-Nov-30 01:25N 45°32' W 122°40'0 0.0
2017-Nov-30 00:58N 45°32' W 122°40'0 0.0
2017-Nov-30 00:28N 45°32' W 122°40'0 0.0
2017-Nov-29 23:58N 45°32' W 122°40'0 0.0
2017-Nov-29 23:28N 45°32' W 122°40'0 0.0
2017-Nov-29 22:58N 45°32' W 122°40'0 0.0
2017-Nov-29 22:28N 45°32' W 122°40'0 0.0
2017-Nov-29 21:58N 45°32' W 122°40'0 0.0
2017-Nov-29 21:28N 45°32' W 122°40'0 0.0
2017-Nov-29 20:58N 45°32' W 122°40'0 0.0
2017-Nov-29 20:28N 45°32' W 122°40'0 0.0
2017-Nov-29 19:52N 45°32' W 122°40'0 0.0
2017-Nov-29 19:28N 45°32' W 122°40'0 0.0
2017-Nov-29 18:58N 45°32' W 122°40'0 0.0
2017-Nov-29 18:28N 45°32' W 122°40'0 0.0
2017-Nov-29 17:58N 45°32' W 122°40'0 0.0
2017-Nov-29 17:28N 45°32' W 122°40'0 0.0
2017-Nov-29 16:58N 45°32' W 122°40'0 0.0
2017-Nov-29 16:28N 45°32' W 122°40'0 0.0
2017-Nov-29 15:58N 45°32' W 122°40'0 0.0
2017-Nov-29 15:28N 45°32' W 122°40'0 0.0
2017-Nov-29 14:58N 45°32' W 122°40'0 0.0
2017-Nov-29 14:28N 45°32' W 122°40'0 0.0
2017-Nov-29 13:58N 45°32' W 122°40'0 0.0
2017-Nov-29 13:25N 45°32' W 122°40'0 0.0
2017-Nov-29 12:58N 45°32' W 122°40'0 0.0
2017-Nov-29 12:28N 45°32' W 122°40'0 0.0
2017-Nov-29 11:58N 45°32' W 122°40'0 0.0
2017-Nov-29 11:28N 45°32' W 122°40'0 0.0
2017-Nov-29 10:58N 45°32' W 122°40'0 0.0
2017-Nov-29 10:28N 45°32' W 122°40'0 0.0
2017-Nov-29 09:58N 45°32' W 122°40'0 0.0
2017-Nov-29 09:28N 45°32' W 122°40'0 0.0
2017-Nov-29 08:58N 45°32' W 122°40'0 0.0
2017-Nov-29 08:28N 45°32' W 122°40'0 0.0
2017-Nov-29 07:58N 45°32' W 122°40'0 0.0
2017-Nov-29 07:28N 45°32' W 122°40'0 0.0
2017-Nov-29 06:58N 45°32' W 122°40'0 0.0
2017-Nov-29 06:28N 45°32' W 122°40'0 0.0
2017-Nov-29 05:58N 45°32' W 122°40'0 0.0
2017-Nov-29 05:28N 45°32' W 122°40'0 0.0
2017-Nov-29 04:58N 45°32' W 122°40'0 0.0
2017-Nov-29 04:28N 45°32' W 122°40'0 0.0
2017-Nov-29 03:58N 45°32' W 122°40'0 0.0
2017-Nov-29 03:28N 45°32' W 122°40'0 0.0
2017-Nov-29 02:58N 45°32' W 122°40'0 0.0
2017-Nov-29 02:28N 45°32' W 122°40'0 0.0
2017-Nov-29 01:58N 45°32' W 122°40'0 0.0
2017-Nov-29 01:28N 45°32' W 122°40'0 0.0
2017-Nov-29 00:58N 45°32' W 122°40'0 0.0
2017-Nov-29 00:28N 45°32' W 122°40'0 0.0
2017-Nov-28 23:58N 45°32' W 122°40'0 0.0
2017-Nov-28 23:28N 45°32' W 122°40'0 0.0
2017-Nov-28 22:58N 45°32' W 122°40'0 0.0
2017-Nov-28 22:28N 45°32' W 122°40'0 0.0
2017-Nov-28 21:58N 45°32' W 122°40'0 0.0
2017-Nov-28 21:28N 45°32' W 122°40'0 0.0
2017-Nov-28 20:58N 45°32' W 122°40'0 0.0
2017-Nov-28 20:28N 45°32' W 122°40'0 0.0
2017-Nov-28 19:58N 45°32' W 122°40'0 0.0
2017-Nov-28 19:28N 45°32' W 122°40'0 0.0
2017-Nov-28 18:58N 45°32' W 122°40'0 0.0
2017-Nov-28 18:28N 45°32' W 122°40'0 0.0
2017-Nov-28 17:58N 45°32' W 122°40'0 0.0
2017-Nov-28 17:28N 45°32' W 122°40'0 0.0
2017-Nov-28 16:58N 45°32' W 122°40'0 0.0
2017-Nov-28 16:28N 45°32' W 122°40'0 0.0
2017-Nov-28 15:58N 45°32' W 122°40'0 0.0
2017-Nov-28 14:58N 45°32' W 122°40'0 0.0
2017-Nov-28 14:28N 45°32' W 122°40'0 0.0
2017-Nov-28 13:58N 45°32' W 122°40'0 0.0
2017-Nov-28 13:28N 45°32' W 122°40'0 0.0
2017-Nov-28 12:58N 45°32' W 122°40'0 0.0
2017-Nov-28 12:28N 45°32' W 122°40'0 0.0
2017-Nov-28 11:58N 45°32' W 122°40'0 0.0
2017-Nov-28 11:25N 45°32' W 122°40'0 0.0
2017-Nov-28 10:58N 45°32' W 122°40'0 0.0
2017-Nov-28 10:28N 45°32' W 122°40'0 0.0
2017-Nov-28 09:58N 45°32' W 122°40'0 0.0
2017-Nov-28 09:28N 45°32' W 122°40'0 0.0
2017-Nov-28 08:58N 45°32' W 122°40'0 0.0
2017-Nov-28 08:28N 45°32' W 122°40'0 0.0
2017-Nov-28 07:58N 45°32' W 122°40'0 0.0
2017-Nov-28 07:28N 45°32' W 122°40'0 0.0
2017-Nov-28 06:58N 45°32' W 122°40'0 0.0
2017-Nov-28 06:28N 45°32' W 122°40'0 0.0
2017-Nov-28 05:58N 45°32' W 122°40'0 0.0
2017-Nov-28 05:28N 45°32' W 122°40'0 0.0
2017-Nov-28 04:28N 45°32' W 122°40'0 0.0
2017-Nov-28 03:58N 45°32' W 122°40'0 0.0
2017-Nov-28 03:28N 45°32' W 122°40'0 0.0
2017-Nov-28 02:58N 45°32' W 122°40'0 0.0
2017-Nov-28 02:28N 45°32' W 122°40'0 0.0
2017-Nov-28 01:58N 45°32' W 122°40'0 0.0
2017-Nov-28 01:28N 45°32' W 122°40'0 0.0
2017-Nov-28 00:58N 45°32' W 122°40'0 0.0
2017-Nov-28 00:28N 45°32' W 122°40'0 0.0
2017-Nov-27 23:58N 45°32' W 122°40'0 0.0
2017-Nov-27 23:28N 45°32' W 122°40'0 0.0
2017-Nov-27 22:58N 45°32' W 122°40'0 0.0
2017-Nov-27 22:28N 45°32' W 122°40'0 0.0
2017-Nov-27 21:58N 45°32' W 122°40'0 0.0
2017-Nov-27 21:28N 45°32' W 122°40'0 0.0
2017-Nov-27 20:58N 45°32' W 122°40'0 0.0
2017-Nov-27 20:28N 45°32' W 122°40'0 0.0
2017-Nov-27 19:58N 45°32' W 122°40'0 0.0
2017-Nov-27 19:28N 45°32' W 122°40'0 0.0
2017-Nov-27 18:58N 45°32' W 122°40'0 0.0
2017-Nov-27 18:28N 45°32' W 122°40'0 0.0
2017-Nov-27 17:58N 45°32' W 122°40'0 0.0
2017-Nov-27 17:28N 45°32' W 122°40'0 0.0
2017-Nov-27 16:58N 45°32' W 122°40'0 0.0
2017-Nov-27 16:28N 45°32' W 122°40'0 0.0
2017-Nov-27 15:58N 45°32' W 122°40'0 0.0
2017-Nov-27 15:28N 45°32' W 122°40'0 0.0
2017-Nov-27 14:58N 45°32' W 122°40'0 0.0
2017-Nov-27 14:28N 45°32' W 122°40'0 0.0
2017-Nov-27 13:58N 45°32' W 122°40'0 0.0
2017-Nov-27 13:28N 45°32' W 122°40'0 0.0
2017-Nov-27 12:58N 45°32' W 122°40'0 0.0
2017-Nov-27 12:28N 45°32' W 122°40'0 0.0
2017-Nov-27 11:58N 45°32' W 122°40'0 0.0
2017-Nov-27 11:28N 45°32' W 122°40'0 0.0
2017-Nov-27 10:58N 45°32' W 122°40'0 0.0
2017-Nov-27 10:28N 45°32' W 122°40'0 0.0
2017-Nov-27 09:55N 45°32' W 122°40'0 0.0
2017-Nov-27 09:28N 45°32' W 122°40'0 0.0
2017-Nov-27 08:58N 45°32' W 122°40'0 0.0
2017-Nov-27 08:28N 45°32' W 122°40'0 0.0
2017-Nov-27 07:58N 45°32' W 122°40'0 0.0
2017-Nov-27 07:28N 45°32' W 122°40'0 0.0
2017-Nov-27 06:58N 45°32' W 122°40'0 0.0
2017-Nov-27 06:28N 45°32' W 122°40'0 0.0
2017-Nov-27 05:58N 45°32' W 122°40'0 0.0
2017-Nov-27 05:28N 45°32' W 122°40'0 0.0
2017-Nov-27 04:58N 45°32' W 122°40'0 0.0
2017-Nov-27 04:28N 45°32' W 122°40'0 0.0
2017-Nov-27 03:58N 45°32' W 122°40'0 0.0
2017-Nov-27 03:28N 45°32' W 122°40'0 0.0
2017-Nov-27 02:58N 45°32' W 122°40'0 0.0
2017-Nov-27 02:28N 45°32' W 122°40'0 0.0
2017-Nov-27 01:58N 45°32' W 122°40'0 0.0
2017-Nov-27 01:28N 45°32' W 122°40'0 0.0
2017-Nov-27 00:58N 45°32' W 122°40'0 0.0
2017-Nov-27 00:28N 45°32' W 122°40'0 0.0
2017-Nov-26 23:58N 45°32' W 122°40'0 0.0
2017-Nov-26 23:28N 45°32' W 122°40'0 0.0
2017-Nov-26 22:58N 45°32' W 122°40'0 0.0
2017-Nov-26 22:28N 45°32' W 122°40'0 0.0
2017-Nov-26 21:58N 45°32' W 122°40'0 0.0
2017-Nov-26 21:28N 45°32' W 122°40'0 0.0
2017-Nov-26 20:58N 45°32' W 122°40'0 0.0
2017-Nov-26 20:28N 45°32' W 122°40'0 0.0
2017-Nov-26 19:58N 45°32' W 122°40'0 0.0
2017-Nov-26 19:28N 45°32' W 122°40'0 0.0
2017-Nov-26 18:58N 45°32' W 122°40'0 0.0
2017-Nov-26 18:28N 45°32' W 122°40'0 0.0
2017-Nov-26 17:58N 45°32' W 122°40'0 0.0
2017-Nov-26 17:28N 45°32' W 122°40'0 0.0
2017-Nov-26 16:58N 45°32' W 122°40'0 0.0
2017-Nov-26 16:28N 45°32' W 122°40'0 0.0
2017-Nov-26 15:58N 45°32' W 122°40'0 0.0
2017-Nov-26 15:28N 45°32' W 122°40'0 0.0
2017-Nov-26 14:58N 45°32' W 122°40'0 0.0
2017-Nov-26 14:28N 45°32' W 122°40'0 0.0
2017-Nov-26 13:58N 45°32' W 122°40'0 0.0
2017-Nov-26 13:28N 45°32' W 122°40'0 0.0
2017-Nov-26 12:58N 45°32' W 122°40'0 0.0
2017-Nov-26 12:28N 45°32' W 122°40'0 0.0
2017-Nov-26 11:58N 45°32' W 122°40'0 0.0
2017-Nov-26 11:28N 45°32' W 122°40'0 0.0
2017-Nov-26 10:58N 45°32' W 122°40'0 0.0
2017-Nov-26 10:28N 45°32' W 122°40'0 0.0
2017-Nov-26 09:58N 45°32' W 122°40'0 0.0
2017-Nov-26 09:28N 45°32' W 122°40'0 0.0
2017-Nov-26 08:58N 45°32' W 122°40'0 0.0
2017-Nov-26 08:28N 45°32' W 122°40'0 0.0
2017-Nov-26 07:58N 45°32' W 122°40'0 0.0
2017-Nov-26 07:28N 45°32' W 122°40'0 0.0
2017-Nov-26 06:58N 45°32' W 122°40'0 0.0
2017-Nov-26 06:28N 45°32' W 122°40'0 0.0
2017-Nov-26 05:58N 45°32' W 122°40'0 0.0
2017-Nov-26 05:28N 45°32' W 122°40'0 0.0
2017-Nov-26 04:58N 45°32' W 122°40'0 0.0
2017-Nov-26 04:28N 45°32' W 122°40'0 0.0
2017-Nov-26 03:58N 45°32' W 122°40'0 0.0
2017-Nov-26 03:28N 45°32' W 122°40'0 0.0
2017-Nov-26 02:58N 45°32' W 122°40'0 0.0
2017-Nov-26 02:28N 45°32' W 122°40'0 0.0
2017-Nov-26 01:58N 45°32' W 122°40'0 0.0
2017-Nov-26 01:28N 45°32' W 122°40'0 0.0
2017-Nov-26 00:58N 45°32' W 122°40'0 0.0
2017-Nov-26 00:28N 45°32' W 122°40'0 0.0
2017-Nov-25 23:58N 45°32' W 122°40'0 0.0
2017-Nov-25 23:28N 45°32' W 122°40'0 0.0
2017-Nov-25 22:58N 45°32' W 122°40'0 0.0
2017-Nov-25 22:28N 45°32' W 122°40'0 0.0
2017-Nov-25 21:58N 45°32' W 122°40'0 0.0
2017-Nov-25 21:28N 45°32' W 122°40'0 0.0
2017-Nov-25 20:58N 45°32' W 122°40'0 0.0
2017-Nov-25 20:28N 45°32' W 122°40'0 0.0
2017-Nov-25 19:58N 45°32' W 122°40'0 0.0
2017-Nov-25 19:28N 45°32' W 122°40'0 0.0
2017-Nov-25 18:58N 45°32' W 122°40'0 0.0
2017-Nov-25 18:28N 45°32' W 122°40'0 0.0
2017-Nov-25 17:58N 45°32' W 122°40'0 0.0
2017-Nov-25 17:28N 45°32' W 122°40'0 0.0
2017-Nov-25 16:58N 45°32' W 122°40'0 0.0
2017-Nov-25 16:28N 45°32' W 122°40'0 0.0
2017-Nov-25 15:58N 45°32' W 122°40'0 0.0
2017-Nov-25 15:28N 45°32' W 122°40'0 0.0
2017-Nov-25 14:58N 45°32' W 122°40'0 0.0
2017-Nov-25 14:28N 45°32' W 122°40'0 0.0
2017-Nov-25 13:58N 45°32' W 122°40'0 0.0
2017-Nov-25 13:28N 45°32' W 122°40'0 0.0
2017-Nov-25 12:58N 45°32' W 122°40'0 0.0
2017-Nov-25 12:28N 45°32' W 122°40'0 0.0
2017-Nov-25 11:58N 45°32' W 122°40'0 0.0
2017-Nov-25 11:28N 45°32' W 122°40'0 0.0
2017-Nov-25 10:58N 45°32' W 122°40'0 0.0
2017-Nov-25 10:28N 45°32' W 122°40'0 0.0
2017-Nov-25 09:58N 45°32' W 122°40'0 0.0
2017-Nov-25 09:28N 45°32' W 122°40'0 0.0
2017-Nov-25 08:58N 45°32' W 122°40'0 0.0
2017-Nov-25 08:28N 45°32' W 122°40'0 0.0
2017-Nov-25 07:58N 45°32' W 122°40'0 0.0
2017-Nov-25 07:28N 45°32' W 122°40'0 0.0
2017-Nov-25 06:58N 45°32' W 122°40'0 0.0
2017-Nov-25 06:28N 45°32' W 122°40'0 0.0
2017-Nov-25 05:58N 45°32' W 122°40'0 0.0
2017-Nov-25 05:28N 45°32' W 122°40'0 0.0
2017-Nov-25 04:58N 45°32' W 122°40'0 0.0
2017-Nov-25 04:28N 45°32' W 122°40'0 0.0
2017-Nov-25 03:40N 45°32' W 122°40'0 0.0
2017-Nov-25 03:25N 45°32' W 122°40'0 0.0
2017-Nov-25 02:58N 45°32' W 122°40'0 0.0
2017-Nov-25 02:28N 45°32' W 122°40'0 0.0
2017-Nov-25 01:58N 45°32' W 122°40'0 0.0
2017-Nov-25 01:28N 45°32' W 122°40'0 0.0
2017-Nov-25 00:58N 45°32' W 122°40'0 0.0
2017-Nov-25 00:28N 45°32' W 122°40'0 0.0
2017-Nov-24 23:58N 45°32' W 122°40'0 0.0
2017-Nov-24 23:28N 45°32' W 122°40'0 0.0
2017-Nov-24 22:58N 45°32' W 122°40'0 0.0
2017-Nov-24 22:28N 45°32' W 122°40'0 0.0
2017-Nov-24 21:58N 45°32' W 122°40'0 0.0
2017-Nov-24 21:28N 45°32' W 122°40'0 0.0
2017-Nov-24 20:58N 45°32' W 122°40'0 0.0
2017-Nov-24 20:28N 45°32' W 122°40'0 0.0
2017-Nov-24 19:58N 45°32' W 122°40'0 0.0
2017-Nov-24 19:28N 45°32' W 122°40'0 0.0
2017-Nov-24 18:58N 45°32' W 122°40'0 0.0
2017-Nov-24 18:28N 45°32' W 122°40'0 0.0
2017-Nov-24 17:58N 45°32' W 122°40'0 0.0
2017-Nov-24 17:28N 45°32' W 122°40'0 0.0
2017-Nov-24 16:58N 45°32' W 122°40'0 0.0
2017-Nov-24 16:28N 45°32' W 122°40'0 0.0
2017-Nov-24 15:58N 45°32' W 122°40'0 0.0
2017-Nov-24 15:28N 45°32' W 122°40'0 0.0
2017-Nov-24 14:58N 45°32' W 122°40'0 0.0
2017-Nov-24 14:28N 45°32' W 122°40'0 0.0
2017-Nov-24 13:58N 45°32' W 122°40'0 0.0
2017-Nov-24 13:28N 45°32' W 122°40'0 0.0
2017-Nov-24 12:58N 45°32' W 122°40'0 0.0
2017-Nov-24 12:28N 45°32' W 122°40'0 0.0
2017-Nov-24 11:58N 45°32' W 122°40'0 0.0
2017-Nov-24 11:28N 45°32' W 122°40'0 0.0
2017-Nov-24 10:58N 45°32' W 122°40'0 0.0
2017-Nov-24 10:28N 45°32' W 122°40'0 0.0
2017-Nov-24 09:58N 45°32' W 122°40'0 0.0
2017-Nov-24 09:28N 45°32' W 122°40'0 0.4
2017-Nov-24 09:00N 45°32' W 122°40'3 5.2
2017-Nov-24 08:30N 45°34' W 122°43'4 7.2
2017-Nov-24 08:01N 45°36' W 122°47'3 6.8
2017-Nov-24 07:30N 45°39' W 122°46'611.2
2017-Nov-24 07:01N 45°45' W 122°46'611.3
2017-Nov-24 06:30N 45°51' W 122°47'611.3
2017-Nov-24 06:00N 45°56' W 122°48'611.5
2017-Nov-24 05:30N 46°01' W 122°52'510.3
2017-Nov-24 05:00N 46°06' W 122°56'4 8.1
2017-Nov-24 04:30N 46°08' W 123°01'711.3
2017-Nov-24 03:52N 46°11' W 123°10'410.8
2017-Nov-24 03:30N 46°09' W 123°15'710.2
2017-Nov-24 02:48N 46°11' W 123°25'310.4
2017-Nov-24 02:30N 46°14' W 123°26'5 9.7
2017-Nov-24 02:00N 46°16' W 123°32'612.0
2017-Nov-24 01:30N 46°15' W 123°40'612.3
2017-Nov-24 01:00N 46°12' W 123°48'5 9.8
2017-Nov-24 00:30N 46°12' W 123°55'612.0
2017-Nov-24 00:00N 46°15' W 124°02'612.6
2017-Nov-23 23:30N 46°13' W 124°10'611.8
2017-Nov-23 23:00N 46°12' W 124°19'2 4.1
2017-Nov-23 22:30N 46°13' W 124°22'2 4.5
2017-Nov-23 22:00N 46°12' W 124°25'3 5.7
2017-Nov-23 21:30N 46°13' W 124°29'4 7.7
2017-Nov-23 21:00N 46°13' W 124°35'510.8
2017-Nov-23 20:30N 46°14' W 124°42'510.6
2017-Nov-23 20:00N 46°14' W 124°50'510.6
2017-Nov-23 19:30N 46°14' W 124°58'510.5
2017-Nov-23 19:00N 46°15' W 125°05'510.4
2017-Nov-23 18:30N 46°15' W 125°13'510.2
2017-Nov-23 18:00N 46°16' W 125°20'4 8.0
2017-Nov-23 17:30N 46°16' W 125°26'4 8.3
2017-Nov-23 17:00N 46°16' W 125°32'4 8.6
2017-Nov-23 16:30N 46°17' W 125°38'14 8.3
2017-Nov-23 14:48N 46°18' W 125°58'  
Track history (hours):
 
Tides and Currents Weather Stations Pressure Air Temp Water Temp Dewpoint Dewpoint Depression Visibility Wind Speed Wind Dir Waves Ship Positions

Global Effort

Last reported at 2017-Nov-30 22:20 UTC. Time now 2017-Dec-14 17:14 UTC.
Position N 46°17' W 125°40'.
Warning: this ship's position is 13 days out of date.

Length 178 m; draft 10.9 m.

Type: Cargo ship. MMSI: 373412000.

Date/timePositionNaut miles runAvg speedWind from/ knotsBaromVisibWave heightAir tempDewpointWater temp
2017-Nov-30 22:20N 46°17' W 125°40'1 3.0
2017-Nov-30 21:55N 46°17' W 125°39'6 4.0
2017-Nov-30 20:26N 46°16' W 125°30'3 4.2
2017-Nov-30 19:49N 46°16' W 125°26'2 3.6
2017-Nov-30 19:22N 46°16' W 125°24'1 2.9
2017-Nov-30 18:58N 46°16' W 125°22'2 3.8
2017-Nov-30 18:30N 46°16' W 125°20'4 8.3
2017-Nov-30 18:00N 46°16' W 125°14'4 7.4
2017-Nov-30 17:30N 46°15' W 125°09'4 7.5
2017-Nov-30 17:00N 46°15' W 125°03'4 7.5
2017-Nov-30 16:30N 46°14' W 124°58'4 7.1
2017-Nov-30 16:00N 46°14' W 124°53'4 7.1
2017-Nov-30 15:30N 46°14' W 124°48'4 7.8
2017-Nov-30 15:00N 46°13' W 124°42'4 7.8
2017-Nov-30 14:30N 46°13' W 124°36'4 8.6
2017-Nov-30 14:00N 46°13' W 124°30'4 8.4
2017-Nov-30 13:31N 46°12' W 124°24'4 8.7
2017-Nov-30 13:01N 46°12' W 124°18'4 8.7
2017-Nov-30 12:30N 46°12' W 124°12'4 8.9
2017-Nov-30 12:00N 46°14' W 124°06'510.5
2017-Nov-30 11:31N 46°14' W 123°59'611.6
2017-Nov-30 11:00N 46°12' W 123°51'611.8
2017-Nov-30 10:31N 46°14' W 123°43'913.1
2017-Nov-30 09:48N 46°16' W 123°30'412.7
2017-Nov-30 09:30N 46°14' W 123°26'611.4
2017-Nov-30 09:00N 46°09' W 123°23'612.6
2017-Nov-30 08:30N 46°10' W 123°14'911.5
2017-Nov-30 07:42N 46°08' W 123°01'212.2
2017-Nov-30 07:30N 46°06' W 122°58'711.1
2017-Nov-30 06:51N 46°01' W 122°51'411.3
2017-Nov-30 06:31N 45°58' W 122°49'713.1
2017-Nov-30 06:01N 45°51' W 122°47'612.8
2017-Nov-30 05:31N 45°45' W 122°46'611.7
2017-Nov-30 05:00N 45°39' W 122°46'3 6.9
2017-Nov-30 04:31N 45°36' W 122°46'4 8.2
2017-Nov-30 04:01N 45°33' W 122°42'2 3.1
2017-Nov-30 03:30N 45°32' W 122°40'0 0.1
2017-Nov-30 02:58N 45°32' W 122°40'0 0.0
2017-Nov-30 02:28N 45°32' W 122°40'0 0.0
2017-Nov-30 01:58N 45°32' W 122°40'0 0.0
2017-Nov-30 01:25N 45°32' W 122°40'0 0.0
2017-Nov-30 00:58N 45°32' W 122°40'0 0.0
2017-Nov-30 00:28N 45°32' W 122°40'0 0.0
2017-Nov-29 23:58N 45°32' W 122°40'0 0.0
2017-Nov-29 23:28N 45°32' W 122°40'0 0.0
2017-Nov-29 22:58N 45°32' W 122°40'0 0.0
2017-Nov-29 22:28N 45°32' W 122°40'0 0.0
2017-Nov-29 21:58N 45°32' W 122°40'0 0.0
2017-Nov-29 21:28N 45°32' W 122°40'0 0.0
2017-Nov-29 20:58N 45°32' W 122°40'0 0.0
2017-Nov-29 20:28N 45°32' W 122°40'0 0.0
2017-Nov-29 19:52N 45°32' W 122°40'0 0.0
2017-Nov-29 19:28N 45°32' W 122°40'0 0.0
2017-Nov-29 18:58N 45°32' W 122°40'0 0.0
2017-Nov-29 18:28N 45°32' W 122°40'0 0.0
2017-Nov-29 17:58N 45°32' W 122°40'0 0.0
2017-Nov-29 17:28N 45°32' W 122°40'0 0.0
2017-Nov-29 16:58N 45°32' W 122°40'0 0.0
2017-Nov-29 16:28N 45°32' W 122°40'0 0.0
2017-Nov-29 15:58N 45°32' W 122°40'0 0.0
2017-Nov-29 15:28N 45°32' W 122°40'0 0.0
2017-Nov-29 14:58N 45°32' W 122°40'0 0.0
2017-Nov-29 14:28N 45°32' W 122°40'0 0.0
2017-Nov-29 13:58N 45°32' W 122°40'0 0.0
2017-Nov-29 13:25N 45°32' W 122°40'0 0.0
2017-Nov-29 12:58N 45°32' W 122°40'0 0.0
2017-Nov-29 12:28N 45°32' W 122°40'0 0.0
2017-Nov-29 11:58N 45°32' W 122°40'0 0.0
2017-Nov-29 11:28N 45°32' W 122°40'0 0.0
2017-Nov-29 10:58N 45°32' W 122°40'0 0.0
2017-Nov-29 10:28N 45°32' W 122°40'0 0.0
2017-Nov-29 09:58N 45°32' W 122°40'0 0.0
2017-Nov-29 09:28N 45°32' W 122°40'0 0.0
2017-Nov-29 08:58N 45°32' W 122°40'0 0.0
2017-Nov-29 08:28N 45°32' W 122°40'0 0.0
2017-Nov-29 07:58N 45°32' W 122°40'0 0.0
2017-Nov-29 07:28N 45°32' W 122°40'0 0.0
2017-Nov-29 06:58N 45°32' W 122°40'0 0.0
2017-Nov-29 06:28N 45°32' W 122°40'0 0.0
2017-Nov-29 05:58N 45°32' W 122°40'0 0.0
2017-Nov-29 05:28N 45°32' W 122°40'0 0.0
2017-Nov-29 04:58N 45°32' W 122°40'0 0.0
2017-Nov-29 04:28N 45°32' W 122°40'0 0.0
2017-Nov-29 03:58N 45°32' W 122°40'0 0.0
2017-Nov-29 03:28N 45°32' W 122°40'0 0.0
2017-Nov-29 02:58N 45°32' W 122°40'0 0.0
2017-Nov-29 02:28N 45°32' W 122°40'0 0.0
2017-Nov-29 01:58N 45°32' W 122°40'0 0.0
2017-Nov-29 01:28N 45°32' W 122°40'0 0.0
2017-Nov-29 00:58N 45°32' W 122°40'0 0.0
2017-Nov-29 00:28N 45°32' W 122°40'0 0.0
2017-Nov-28 23:58N 45°32' W 122°40'0 0.0
2017-Nov-28 23:28N 45°32' W 122°40'0 0.0
2017-Nov-28 22:58N 45°32' W 122°40'0 0.0
2017-Nov-28 22:28N 45°32' W 122°40'0 0.0
2017-Nov-28 21:58N 45°32' W 122°40'0 0.0
2017-Nov-28 21:28N 45°32' W 122°40'0 0.0
2017-Nov-28 20:58N 45°32' W 122°40'0 0.0
2017-Nov-28 20:28N 45°32' W 122°40'0 0.0
2017-Nov-28 19:58N 45°32' W 122°40'0 0.0
2017-Nov-28 19:28N 45°32' W 122°40'0 0.0
2017-Nov-28 18:58N 45°32' W 122°40'0 0.0
2017-Nov-28 18:28N 45°32' W 122°40'0 0.0
2017-Nov-28 17:58N 45°32' W 122°40'0 0.0
2017-Nov-28 17:28N 45°32' W 122°40'0 0.0
2017-Nov-28 16:58N 45°32' W 122°40'0 0.0
2017-Nov-28 16:28N 45°32' W 122°40'0 0.0
2017-Nov-28 15:58N 45°32' W 122°40'0 0.0
2017-Nov-28 14:58N 45°32' W 122°40'0 0.0
2017-Nov-28 14:28N 45°32' W 122°40'0 0.0
2017-Nov-28 13:58N 45°32' W 122°40'0 0.0
2017-Nov-28 13:28N 45°32' W 122°40'0 0.0
2017-Nov-28 12:58N 45°32' W 122°40'0 0.0
2017-Nov-28 12:28N 45°32' W 122°40'0 0.0
2017-Nov-28 11:58N 45°32' W 122°40'0 0.0
2017-Nov-28 11:25N 45°32' W 122°40'0 0.0
2017-Nov-28 10:58N 45°32' W 122°40'0 0.0
2017-Nov-28 10:28N 45°32' W 122°40'0 0.0
2017-Nov-28 09:58N 45°32' W 122°40'0 0.0
2017-Nov-28 09:28N 45°32' W 122°40'0 0.0
2017-Nov-28 08:58N 45°32' W 122°40'0 0.0
2017-Nov-28 08:28N 45°32' W 122°40'0 0.0
2017-Nov-28 07:58N 45°32' W 122°40'0 0.0
2017-Nov-28 07:28N 45°32' W 122°40'0 0.0
2017-Nov-28 06:58N 45°32' W 122°40'0 0.0
2017-Nov-28 06:28N 45°32' W 122°40'0 0.0
2017-Nov-28 05:58N 45°32' W 122°40'0 0.0
2017-Nov-28 05:28N 45°32' W 122°40'0 0.0
2017-Nov-28 04:28N 45°32' W 122°40'0 0.0
2017-Nov-28 03:58N 45°32' W 122°40'0 0.0
2017-Nov-28 03:28N 45°32' W 122°40'0 0.0
2017-Nov-28 02:58N 45°32' W 122°40'0 0.0
2017-Nov-28 02:28N 45°32' W 122°40'0 0.0
2017-Nov-28 01:58N 45°32' W 122°40'0 0.0
2017-Nov-28 01:28N 45°32' W 122°40'0 0.0
2017-Nov-28 00:58N 45°32' W 122°40'0 0.0
2017-Nov-28 00:28N 45°32' W 122°40'0 0.0
2017-Nov-27 23:58N 45°32' W 122°40'0 0.0
2017-Nov-27 23:28N 45°32' W 122°40'0 0.0
2017-Nov-27 22:58N 45°32' W 122°40'0 0.0
2017-Nov-27 22:28N 45°32' W 122°40'0 0.0
2017-Nov-27 21:58N 45°32' W 122°40'0 0.0
2017-Nov-27 21:28N 45°32' W 122°40'0 0.0
2017-Nov-27 20:58N 45°32' W 122°40'0 0.0
2017-Nov-27 20:28N 45°32' W 122°40'0 0.0
2017-Nov-27 19:58N 45°32' W 122°40'0 0.0
2017-Nov-27 19:28N 45°32' W 122°40'0 0.0
2017-Nov-27 18:58N 45°32' W 122°40'0 0.0
2017-Nov-27 18:28N 45°32' W 122°40'0 0.0
2017-Nov-27 17:58N 45°32' W 122°40'0 0.0
2017-Nov-27 17:28N 45°32' W 122°40'0 0.0
2017-Nov-27 16:58N 45°32' W 122°40'0 0.0
2017-Nov-27 16:28N 45°32' W 122°40'0 0.0
2017-Nov-27 15:58N 45°32' W 122°40'0 0.0
2017-Nov-27 15:28N 45°32' W 122°40'0 0.0
2017-Nov-27 14:58N 45°32' W 122°40'0 0.0
2017-Nov-27 14:28N 45°32' W 122°40'0 0.0
2017-Nov-27 13:58N 45°32' W 122°40'0 0.0
2017-Nov-27 13:28N 45°32' W 122°40'0 0.0
2017-Nov-27 12:58N 45°32' W 122°40'0 0.0
2017-Nov-27 12:28N 45°32' W 122°40'0 0.0
2017-Nov-27 11:58N 45°32' W 122°40'0 0.0
2017-Nov-27 11:28N 45°32' W 122°40'0 0.0
2017-Nov-27 10:58N 45°32' W 122°40'0 0.0
2017-Nov-27 10:28N 45°32' W 122°40'0 0.0
2017-Nov-27 09:55N 45°32' W 122°40'0 0.0
2017-Nov-27 09:28N 45°32' W 122°40'0 0.0
2017-Nov-27 08:58N 45°32' W 122°40'0 0.0
2017-Nov-27 08:28N 45°32' W 122°40'0 0.0
2017-Nov-27 07:58N 45°32' W 122°40'0 0.0
2017-Nov-27 07:28N 45°32' W 122°40'0 0.0
2017-Nov-27 06:58N 45°32' W 122°40'0 0.0
2017-Nov-27 06:28N 45°32' W 122°40'0 0.0
2017-Nov-27 05:58N 45°32' W 122°40'0 0.0
2017-Nov-27 05:28N 45°32' W 122°40'0 0.0
2017-Nov-27 04:58N 45°32' W 122°40'0 0.0
2017-Nov-27 04:28N 45°32' W 122°40'0 0.0
2017-Nov-27 03:58N 45°32' W 122°40'0 0.0
2017-Nov-27 03:28N 45°32' W 122°40'0 0.0
2017-Nov-27 02:58N 45°32' W 122°40'0 0.0
2017-Nov-27 02:28N 45°32' W 122°40'0 0.0
2017-Nov-27 01:58N 45°32' W 122°40'0 0.0
2017-Nov-27 01:28N 45°32' W 122°40'0 0.0
2017-Nov-27 00:58N 45°32' W 122°40'0 0.0
2017-Nov-27 00:28N 45°32' W 122°40'0 0.0
2017-Nov-26 23:58N 45°32' W 122°40'0 0.0
2017-Nov-26 23:28N 45°32' W 122°40'0 0.0
2017-Nov-26 22:58N 45°32' W 122°40'0 0.0
2017-Nov-26 22:28N 45°32' W 122°40'0 0.0
2017-Nov-26 21:58N 45°32' W 122°40'0 0.0
2017-Nov-26 21:28N 45°32' W 122°40'0 0.0
2017-Nov-26 20:58N 45°32' W 122°40'0 0.0
2017-Nov-26 20:28N 45°32' W 122°40'0 0.0
2017-Nov-26 19:58N 45°32' W 122°40'0 0.0
2017-Nov-26 19:28N 45°32' W 122°40'0 0.0
2017-Nov-26 18:58N 45°32' W 122°40'0 0.0
2017-Nov-26 18:28N 45°32' W 122°40'0 0.0
2017-Nov-26 17:58N 45°32' W 122°40'0 0.0
2017-Nov-26 17:28N 45°32' W 122°40'0 0.0
2017-Nov-26 16:58N 45°32' W 122°40'0 0.0
2017-Nov-26 16:28N 45°32' W 122°40'0 0.0
2017-Nov-26 15:58N 45°32' W 122°40'0 0.0
2017-Nov-26 15:28N 45°32' W 122°40'0 0.0
2017-Nov-26 14:58N 45°32' W 122°40'0 0.0
2017-Nov-26 14:28N 45°32' W 122°40'0 0.0
2017-Nov-26 13:58N 45°32' W 122°40'0 0.0
2017-Nov-26 13:28N 45°32' W 122°40'0 0.0
2017-Nov-26 12:58N 45°32' W 122°40'0 0.0
2017-Nov-26 12:28N 45°32' W 122°40'0 0.0
2017-Nov-26 11:58N 45°32' W 122°40'0 0.0
2017-Nov-26 11:28N 45°32' W 122°40'0 0.0
2017-Nov-26 10:58N 45°32' W 122°40'0 0.0
2017-Nov-26 10:28N 45°32' W 122°40'0 0.0
2017-Nov-26 09:58N 45°32' W 122°40'0 0.0
2017-Nov-26 09:28N 45°32' W 122°40'0 0.0
2017-Nov-26 08:58N 45°32' W 122°40'0 0.0
2017-Nov-26 08:28N 45°32' W 122°40'0 0.0
2017-Nov-26 07:58N 45°32' W 122°40'0 0.0
2017-Nov-26 07:28N 45°32' W 122°40'0 0.0
2017-Nov-26 06:58N 45°32' W 122°40'0 0.0
2017-Nov-26 06:28N 45°32' W 122°40'0 0.0
2017-Nov-26 05:58N 45°32' W 122°40'0 0.0
2017-Nov-26 05:28N 45°32' W 122°40'0 0.0
2017-Nov-26 04:58N 45°32' W 122°40'0 0.0
2017-Nov-26 04:28N 45°32' W 122°40'0 0.0
2017-Nov-26 03:58N 45°32' W 122°40'0 0.0
2017-Nov-26 03:28N 45°32' W 122°40'0 0.0
2017-Nov-26 02:58N 45°32' W 122°40'0 0.0
2017-Nov-26 02:28N 45°32' W 122°40'0 0.0
2017-Nov-26 01:58N 45°32' W 122°40'0 0.0
2017-Nov-26 01:28N 45°32' W 122°40'0 0.0
2017-Nov-26 00:58N 45°32' W 122°40'0 0.0
2017-Nov-26 00:28N 45°32' W 122°40'0 0.0
2017-Nov-25 23:58N 45°32' W 122°40'0 0.0
2017-Nov-25 23:28N 45°32' W 122°40'0 0.0
2017-Nov-25 22:58N 45°32' W 122°40'0 0.0
2017-Nov-25 22:28N 45°32' W 122°40'0 0.0
2017-Nov-25 21:58N 45°32' W 122°40'0 0.0
2017-Nov-25 21:28N 45°32' W 122°40'0 0.0
2017-Nov-25 20:58N 45°32' W 122°40'0 0.0
2017-Nov-25 20:28N 45°32' W 122°40'0 0.0
2017-Nov-25 19:58N 45°32' W 122°40'0 0.0
2017-Nov-25 19:28N 45°32' W 122°40'0 0.0
2017-Nov-25 18:58N 45°32' W 122°40'0 0.0
2017-Nov-25 18:28N 45°32' W 122°40'0 0.0
2017-Nov-25 17:58N 45°32' W 122°40'0 0.0
2017-Nov-25 17:28N 45°32' W 122°40'0 0.0
2017-Nov-25 16:58N 45°32' W 122°40'0 0.0
2017-Nov-25 16:28N 45°32' W 122°40'0 0.0
2017-Nov-25 15:58N 45°32' W 122°40'0 0.0
2017-Nov-25 15:28N 45°32' W 122°40'0 0.0
2017-Nov-25 14:58N 45°32' W 122°40'0 0.0
2017-Nov-25 14:28N 45°32' W 122°40'0 0.0
2017-Nov-25 13:58N 45°32' W 122°40'0 0.0
2017-Nov-25 13:28N 45°32' W 122°40'0 0.0
2017-Nov-25 12:58N 45°32' W 122°40'0 0.0
2017-Nov-25 12:28N 45°32' W 122°40'0 0.0
2017-Nov-25 11:58N 45°32' W 122°40'0 0.0
2017-Nov-25 11:28N 45°32' W 122°40'0 0.0
2017-Nov-25 10:58N 45°32' W 122°40'0 0.0
2017-Nov-25 10:28N 45°32' W 122°40'0 0.0
2017-Nov-25 09:58N 45°32' W 122°40'0 0.0
2017-Nov-25 09:28N 45°32' W 122°40'0 0.0
2017-Nov-25 08:58N 45°32' W 122°40'0 0.0
2017-Nov-25 08:28N 45°32' W 122°40'0 0.0
2017-Nov-25 07:58N 45°32' W 122°40'0 0.0
2017-Nov-25 07:28N 45°32' W 122°40'0 0.0
2017-Nov-25 06:58N 45°32' W 122°40'0 0.0
2017-Nov-25 06:28N 45°32' W 122°40'0 0.0
2017-Nov-25 05:58N 45°32' W 122°40'0 0.0
2017-Nov-25 05:28N 45°32' W 122°40'0 0.0
2017-Nov-25 04:58N 45°32' W 122°40'0 0.0
2017-Nov-25 04:28N 45°32' W 122°40'0 0.0
2017-Nov-25 03:40N 45°32' W 122°40'0 0.0
2017-Nov-25 03:25N 45°32' W 122°40'0 0.0
2017-Nov-25 02:58N 45°32' W 122°40'0 0.0
2017-Nov-25 02:28N 45°32' W 122°40'0 0.0
2017-Nov-25 01:58N 45°32' W 122°40'0 0.0
2017-Nov-25 01:28N 45°32' W 122°40'0 0.0
2017-Nov-25 00:58N 45°32' W 122°40'0 0.0
2017-Nov-25 00:28N 45°32' W 122°40'0 0.0
2017-Nov-24 23:58N 45°32' W 122°40'0 0.0
2017-Nov-24 23:28N 45°32' W 122°40'0 0.0
2017-Nov-24 22:58N 45°32' W 122°40'0 0.0
2017-Nov-24 22:28N 45°32' W 122°40'0 0.0
2017-Nov-24 21:58N 45°32' W 122°40'0 0.0
2017-Nov-24 21:28N 45°32' W 122°40'0 0.0
2017-Nov-24 20:58N 45°32' W 122°40'0 0.0
2017-Nov-24 20:28N 45°32' W 122°40'0 0.0
2017-Nov-24 19:58N 45°32' W 122°40'0 0.0
2017-Nov-24 19:28N 45°32' W 122°40'0 0.0
2017-Nov-24 18:58N 45°32' W 122°40'0 0.0
2017-Nov-24 18:28N 45°32' W 122°40'0 0.0
2017-Nov-24 17:58N 45°32' W 122°40'0 0.0
2017-Nov-24 17:28N 45°32' W 122°40'0 0.0
2017-Nov-24 16:58N 45°32' W 122°40'0 0.0
2017-Nov-24 16:28N 45°32' W 122°40'0 0.0
2017-Nov-24 15:58N 45°32' W 122°40'0 0.0
2017-Nov-24 15:28N 45°32' W 122°40'0 0.0
2017-Nov-24 14:58N 45°32' W 122°40'0 0.0
2017-Nov-24 14:28N 45°32' W 122°40'0 0.0
2017-Nov-24 13:58N 45°32' W 122°40'0 0.0
2017-Nov-24 13:28N 45°32' W 122°40'0 0.0
2017-Nov-24 12:58N 45°32' W 122°40'0 0.0
2017-Nov-24 12:28N 45°32' W 122°40'0 0.0
2017-Nov-24 11:58N 45°32' W 122°40'0 0.0
2017-Nov-24 11:28N 45°32' W 122°40'0 0.0
2017-Nov-24 10:58N 45°32' W 122°40'0 0.0
2017-Nov-24 10:28N 45°32' W 122°40'0 0.0
2017-Nov-24 09:58N 45°32' W 122°40'0 0.0
2017-Nov-24 09:28N 45°32' W 122°40'0 0.4
2017-Nov-24 09:00N 45°32' W 122°40'3 5.2
2017-Nov-24 08:30N 45°34' W 122°43'4 7.2
2017-Nov-24 08:01N 45°36' W 122°47'3 6.8
2017-Nov-24 07:30N 45°39' W 122°46'611.2
2017-Nov-24 07:01N 45°45' W 122°46'611.3
2017-Nov-24 06:30N 45°51' W 122°47'611.3
2017-Nov-24 06:00N 45°56' W 122°48'611.5
2017-Nov-24 05:30N 46°01' W 122°52'510.3
2017-Nov-24 05:00N 46°06' W 122°56'4 8.1
2017-Nov-24 04:30N 46°08' W 123°01'711.3
2017-Nov-24 03:52N 46°11' W 123°10'410.8
2017-Nov-24 03:30N 46°09' W 123°15'710.2
2017-Nov-24 02:48N 46°11' W 123°25'310.4
2017-Nov-24 02:30N 46°14' W 123°26'5 9.7
2017-Nov-24 02:00N 46°16' W 123°32'612.0
2017-Nov-24 01:30N 46°15' W 123°40'612.3
2017-Nov-24 01:00N 46°12' W 123°48'5 9.8
2017-Nov-24 00:30N 46°12' W 123°55'612.0
2017-Nov-24 00:00N 46°15' W 124°02'612.6
2017-Nov-23 23:30N 46°13' W 124°10'611.8
2017-Nov-23 23:00N 46°12' W 124°19'2 4.1
2017-Nov-23 22:30N 46°13' W 124°22'2 4.5
2017-Nov-23 22:00N 46°12' W 124°25'3 5.7
2017-Nov-23 21:30N 46°13' W 124°29'4 7.7
2017-Nov-23 21:00N 46°13' W 124°35'510.8
2017-Nov-23 20:30N 46°14' W 124°42'510.6
2017-Nov-23 20:00N 46°14' W 124°50'510.6
2017-Nov-23 19:30N 46°14' W 124°58'510.5
2017-Nov-23 19:00N 46°15' W 125°05'510.4
2017-Nov-23 18:30N 46°15' W 125°13'510.2
2017-Nov-23 18:00N 46°16' W 125°20'4 8.0
2017-Nov-23 17:30N 46°16' W 125°26'4 8.3
2017-Nov-23 17:00N 46°16' W 125°32'4 8.6
2017-Nov-23 16:30N 46°17' W 125°38'14 8.3
2017-Nov-23 14:48N 46°18' W 125°58'  

Dump ship's entire track history